Time;durP1;ratioP1;P1;durP2;ratioP2;P2;SDS_P1;SDS_P2;PMS_P1;PMS_P2;Temp;Humidity;BMP_temperature;BMP_pressure;BME280_temperature;BME280_humidity;BME280_pressure;Samples;Min_cycle;Max_cycle;Signal;HPM_P1;HPM_P2
2023/10/16 00:01:49;;;;;;;0.00;0.00;;;9.50;99.90;;;;;;4996753;28;20034;-66
2023/10/16 00:04:14;;;;;;;0.00;0.00;;;9.40;99.90;;;;;;4998346;28;20121;-67
2023/10/16 00:06:40;;;;;;;0.10;0.10;;;9.40;99.90;;;;;;5000239;28;20508;-66
2023/10/16 00:09:15;;;;;;;0.10;0.10;;;9.40;99.90;;;;;;5007130;28;20588;-67
2023/10/16 00:11:42;;;;;;;5.72;2.85;;;9.40;99.90;;;;;;4994086;28;20410;-67
2023/10/16 00:14:22;;;;;;;0.10;0.10;;;9.40;99.90;;;;;;4996183;28;20100;-67
2023/10/16 00:16:50;;;;;;;0.00;0.00;;;9.40;99.90;;;;;;4997883;28;20042;-66
2023/10/16 00:19:16;;;;;;;0.10;0.10;;;9.50;99.90;;;;;;5015097;28;20042;-67
2023/10/16 00:21:45;;;;;;;1.48;1.38;;;9.50;99.90;;;;;;5005451;28;20057;-67
2023/10/16 00:24:14;;;;;;;0.08;0.08;;;9.50;99.90;;;;;;5004405;28;20071;-66
2023/10/16 00:26:49;;;;;;;0.10;0.10;;;9.50;99.90;;;;;;5022147;28;20042;-67
2023/10/16 00:29:24;;;;;;;0.00;0.00;;;9.50;99.90;;;;;;4997018;28;20065;-67
2023/10/16 00:31:51;;;;;;;0.00;0.00;;;9.50;99.90;;;;;;5001879;28;20064;-66
2023/10/16 00:34:21;;;;;;;0.00;0.00;;;9.50;99.90;;;;;;5002750;28;20046;-67
2023/10/16 00:36:53;;;;;;;0.00;0.00;;;9.50;99.90;;;;;;4998977;28;20051;-66
2023/10/16 00:39:20;;;;;;;0.00;0.00;;;9.50;99.90;;;;;;5005358;28;20489;-67
2023/10/16 00:41:50;;;;;;;0.20;0.20;;;9.60;99.90;;;;;;4998406;28;20073;-66
2023/10/16 00:44:18;;;;;;;0.10;0.10;;;9.60;99.90;;;;;;5005923;28;20065;-67
2023/10/16 00:46:48;;;;;;;0.10;0.10;;;9.50;99.90;;;;;;5008147;28;20046;-66
2023/10/16 00:49:15;;;;;;;0.00;0.00;;;9.50;99.90;;;;;;5003611;28;20069;-66
2023/10/16 00:51:41;;;;;;;0.00;0.00;;;9.50;99.90;;;;;;4996338;28;20061;-66
2023/10/16 00:54:18;;;;;;;0.20;0.20;;;9.50;99.90;;;;;;5006644;28;20393;-66
2023/10/16 00:56:51;;;;;;;0.10;0.10;;;9.40;99.90;;;;;;4996799;28;20092;-66
2023/10/16 00:59:17;;;;;;;0.00;0.00;;;9.30;99.90;;;;;;5003006;28;20038;-66
2023/10/16 01:01:46;;;;;;;0.10;0.10;;;9.30;99.90;;;;;;5003964;28;20331;-66
2023/10/16 01:04:13;;;;;;;0.10;0.10;;;9.20;99.90;;;;;;5015414;28;20034;-66
2023/10/16 01:06:41;;;;;;;0.00;0.00;;;9.20;99.90;;;;;;4999721;28;20048;-66
2023/10/16 01:09:22;;;;;;;0.10;0.10;;;9.20;99.90;;;;;;4997303;28;20402;-66
2023/10/16 01:11:51;;;;;;;0.00;0.00;;;9.20;99.90;;;;;;4992324;28;20042;-66
2023/10/16 01:14:17;;;;;;;0.00;0.00;;;9.20;99.90;;;;;;5000781;28;20041;-66
2023/10/16 01:16:43;;;;;;;0.10;0.10;;;9.10;99.90;;;;;;4996980;28;20410;-66
2023/10/16 01:19:10;;;;;;;0.10;0.10;;;9.10;99.90;;;;;;5001023;28;20061;-66
2023/10/16 01:21:36;;;;;;;0.10;0.10;;;9.20;99.90;;;;;;4999587;28;20049;-66
2023/10/16 01:24:03;;;;;;;0.03;0.03;;;9.20;99.90;;;;;;4998180;28;20092;-66
2023/10/16 01:26:29;;;;;;;0.10;0.10;;;9.20;99.90;;;;;;4998216;28;20076;-66
2023/10/16 01:28:55;;;;;;;0.10;0.10;;;9.30;99.90;;;;;;5002171;28;20049;-66
2023/10/16 01:31:21;;;;;;;0.10;0.10;;;9.20;99.90;;;;;;5006294;28;20157;-66
2023/10/16 01:33:47;;;;;;;0.22;0.22;;;9.20;99.90;;;;;;5006374;28;20474;-66
2023/10/16 01:36:13;;;;;;;0.00;0.00;;;9.20;99.90;;;;;;5006985;28;20618;-66
2023/10/16 01:38:39;;;;;;;0.10;0.10;;;9.10;99.90;;;;;;5003403;28;20506;-67
2023/10/16 01:41:05;;;;;;;0.10;0.10;;;9.10;99.90;;;;;;5004906;28;20054;-66
2023/10/16 01:43:38;;;;;;;0.10;0.10;;;9.10;99.90;;;;;;5004195;28;20039;-67
2023/10/16 01:46:12;;;;;;;0.00;0.00;;;9.10;99.90;;;;;;5001633;28;20054;-67
2023/10/16 01:48:44;;;;;;;0.40;0.40;;;9.00;99.90;;;;;;5003474;28;20042;-67
2023/10/16 01:51:19;;;;;;;0.00;0.00;;;9.00;99.90;;;;;;5005048;28;20498;-66
2023/10/16 01:53:47;;;;;;;0.10;0.10;;;9.00;99.90;;;;;;5014939;28;20125;-67
2023/10/16 01:56:13;;;;;;;0.10;0.10;;;9.00;99.90;;;;;;5003193;28;20433;-66
2023/10/16 01:58:47;;;;;;;0.00;0.00;;;9.00;99.90;;;;;;5001902;28;20098;-67
2023/10/16 02:01:20;;;;;;;;;;;8.90;99.90;;;;;;5002988;28;20085;-67
2023/10/16 02:03:47;;;;;;;0.03;0.03;;;9.00;99.90;;;;;;5003637;28;19933;-67
2023/10/16 02:06:14;;;;;;;0.10;0.10;;;9.00;99.90;;;;;;5009275;28;20608;-67
2023/10/16 02:08:40;;;;;;;0.10;0.10;;;8.90;99.90;;;;;;4999167;28;20190;-67
2023/10/16 02:11:13;;;;;;;0.00;0.00;;;8.90;99.90;;;;;;4994060;28;20053;-67
2023/10/16 02:13:42;;;;;;;0.00;0.00;;;8.90;99.90;;;;;;5007507;28;20049;-67
2023/10/16 02:16:17;;;;;;;0.00;0.00;;;9.00;99.90;;;;;;5020244;28;20042;-66
2023/10/16 02:18:45;;;;;;;0.00;0.00;;;9.00;99.90;;;;;;5008690;28;20050;-67
2023/10/16 02:21:12;;;;;;;0.00;0.00;;;9.00;99.90;;;;;;5006758;28;20038;-66
2023/10/16 02:23:38;;;;;;;0.00;0.00;;;9.00;99.90;;;;;;4994689;28;20205;-66
2023/10/16 02:26:06;;;;;;;0.10;0.10;;;9.00;99.90;;;;;;5004270;28;20553;-67
2023/10/16 02:28:35;;;;;;;0.10;0.10;;;8.90;99.90;;;;;;5003878;28;20505;-67
2023/10/16 02:31:19;;;;;;;0.05;0.05;;;9.00;99.90;;;;;;5004792;28;20112;-67
2023/10/16 02:33:50;;;;;;;0.10;0.10;;;9.10;99.90;;;;;;5002719;28;20054;-67
2023/10/16 02:36:19;;;;;;;0.10;0.10;;;9.10;99.90;;;;;;4997396;28;20067;-67
2023/10/16 02:38:47;;;;;;;0.00;0.00;;;9.10;99.90;;;;;;5000925;28;20494;-67
2023/10/16 02:41:19;;;;;;;0.10;0.10;;;9.10;99.90;;;;;;5006760;28;20046;-67
2023/10/16 02:43:46;;;;;;;0.00;0.00;;;9.10;99.90;;;;;;5004345;28;20045;-67
2023/10/16 02:46:13;;;;;;;1.25;1.15;;;9.10;99.90;;;;;;5003629;28;20513;-66
2023/10/16 02:48:42;;;;;;;0.00;0.00;;;9.20;99.90;;;;;;5000400;28;20116;-67
2023/10/16 02:51:09;;;;;;;0.00;0.00;;;9.20;99.90;;;;;;5007088;28;20430;-67
2023/10/16 02:53:36;;;;;;;0.00;0.00;;;9.30;99.90;;;;;;5003401;28;20437;-67
2023/10/16 02:56:08;;;;;;;0.10;0.10;;;9.30;99.90;;;;;;5008563;28;20056;-67
2023/10/16 02:58:37;;;;;;;0.10;0.10;;;9.30;99.90;;;;;;5008486;28;20441;-67
2023/10/16 03:01:06;;;;;;;0.00;0.00;;;9.30;99.90;;;;;;5002010;28;20066;-67
2023/10/16 03:03:32;;;;;;;0.10;0.10;;;9.30;99.90;;;;;;5002906;28;20089;-67
2023/10/16 03:05:59;;;;;;;0.00;0.00;;;9.30;99.90;;;;;;5008263;28;20080;-66
2023/10/16 03:08:31;;;;;;;0.10;0.10;;;9.20;99.90;;;;;;5003978;28;20057;-67
2023/10/16 03:11:05;;;;;;;0.00;0.00;;;9.20;99.90;;;;;;5011158;28;20088;-66
2023/10/16 03:13:35;;;;;;;0.10;0.10;;;9.20;99.90;;;;;;5001238;28;20085;-67
2023/10/16 03:19:09;;;;;;;0.08;0.08;;;9.20;99.90;;;;;;4992188;28;20046;-66
2023/10/16 03:21:35;;;;;;;0.00;0.00;;;9.20;99.90;;;;;;4997879;28;20452;-67
2023/10/16 03:24:01;;;;;;;0.08;0.08;;;9.20;99.90;;;;;;5006436;28;20042;-67
2023/10/16 03:26:30;;;;;;;0.00;0.00;;;9.20;99.90;;;;;;5000756;28;20069;-67
2023/10/16 03:28:57;;;;;;;0.32;0.32;;;9.30;99.90;;;;;;5003784;28;20054;-67
2023/10/16 03:31:23;;;;;;;0.10;0.10;;;9.30;99.90;;;;;;5002267;28;20058;-67
2023/10/16 03:33:50;;;;;;;0.00;0.00;;;9.30;99.90;;;;;;4996780;28;20046;-67
2023/10/16 03:36:17;;;;;;;0.10;0.10;;;9.30;99.90;;;;;;5008584;28;20065;-67
2023/10/16 03:38:43;;;;;;;0.00;0.00;;;9.40;99.90;;;;;;4996045;28;20042;-67
2023/10/16 03:41:19;;;;;;;0.00;0.00;;;9.30;99.90;;;;;;5005571;28;20057;-67
2023/10/16 03:43:58;;;;;;;0.10;0.10;;;9.30;99.90;;;;;;5016193;28;20134;-67
2023/10/16 03:46:27;;;;;;;0.00;0.00;;;9.30;99.90;;;;;;4995256;28;20056;-67
2023/10/16 03:48:54;;;;;;;0.10;0.10;;;9.40;99.90;;;;;;5001304;28;20065;-67
2023/10/16 03:51:21;;;;;;;0.00;0.00;;;9.40;99.90;;;;;;5006681;28;20863;-67
2023/10/16 03:53:47;;;;;;;3.03;1.20;;;9.40;99.90;;;;;;5002243;28;20049;-67
2023/10/16 03:56:13;;;;;;;0.10;0.10;;;9.40;99.90;;;;;;5000633;28;20437;-67
2023/10/16 03:58:43;;;;;;;0.32;0.32;;;9.40;99.90;;;;;;4998121;28;20391;-67
2023/10/16 04:01:13;;;;;;;0.10;0.10;;;9.40;99.90;;;;;;5004328;28;20056;-67
2023/10/16 04:03:49;;;;;;;0.10;0.10;;;9.40;99.90;;;;;;4999089;28;20126;-67
2023/10/16 04:06:19;;;;;;;0.00;0.00;;;9.40;99.90;;;;;;4998844;28;20062;-67
2023/10/16 04:08:53;;;;;;;0.10;0.10;;;9.40;99.90;;;;;;4995527;28;20042;-67
2023/10/16 04:11:20;;;;;;;0.10;0.10;;;9.40;99.90;;;;;;5000104;28;20129;-67
2023/10/16 04:13:49;;;;;;;0.10;0.10;;;9.40;99.90;;;;;;5006388;28;20502;-67
2023/10/16 04:21:45;;;;;;;0.08;0.08;;;9.30;99.90;;;;;;5001686;28;20053;-67
2023/10/16 04:27:29;;;;;;;0.10;0.10;;;9.10;99.90;;;;;;4998875;28;20061;-67
2023/10/16 04:29:49;;;;;;;0.00;0.00;;;9.10;99.90;;;;;;5003219;28;20490;-67
2023/10/16 04:34:53;;;;;;;0.30;0.30;;;9.00;99.90;;;;;;4998335;28;20171;-67
2023/10/16 04:37:36;;;;;;;0.10;0.10;;;8.90;99.90;;;;;;5003578;28;20125;-67
2023/10/16 04:50:29;;;;;;;0.10;0.10;;;8.90;99.90;;;;;;4998365;28;20057;-67
2023/10/16 05:11:27;;;;;;;0.03;0.03;;;9.10;99.90;;;;;;5000695;28;20064;-67
2023/10/16 05:16:35;;;;;;;0.00;0.00;;;9.20;99.90;;;;;;5000074;28;20049;-67
2023/10/16 05:19:03;;;;;;;0.10;0.10;;;9.20;99.90;;;;;;5005273;28;20038;-67
2023/10/16 06:16:20;;;;;;;0.00;0.00;;;9.30;99.90;;;;;;4996900;28;20061;-67
2023/10/16 06:18:49;;;;;;;0.00;0.00;;;9.30;99.90;;;;;;5000029;28;20057;-67
2023/10/16 06:21:15;;;;;;;0.10;0.10;;;9.30;99.90;;;;;;5006002;28;20042;-68
2023/10/16 06:23:48;;;;;;;0.00;0.00;;;9.40;99.90;;;;;;5001393;28;20038;-67
2023/10/16 06:26:14;;;;;;;0.00;0.00;;;9.50;99.90;;;;;;4999860;28;20050;-68
2023/10/16 06:28:47;;;;;;;0.10;0.10;;;9.50;99.90;;;;;;5002144;28;20316;-67
2023/10/16 06:31:22;;;;;;;0.00;0.00;;;9.50;99.90;;;;;;5001083;28;20449;-67
2023/10/16 06:33:56;;;;;;;0.10;0.10;;;9.60;99.90;;;;;;5003022;28;20104;-68
2023/10/16 06:36:23;;;;;;;0.10;0.10;;;9.60;99.90;;;;;;4992648;28;20038;-68
2023/10/16 06:38:53;;;;;;;0.10;0.10;;;9.60;99.90;;;;;;5004546;28;20077;-68
2023/10/16 06:41:22;;;;;;;0.00;0.00;;;9.70;99.90;;;;;;5006482;28;20054;-67
2023/10/16 06:43:49;;;;;;;0.10;0.10;;;9.70;99.90;;;;;;5000177;28;20555;-68
2023/10/16 06:46:23;;;;;;;0.00;0.00;;;9.70;99.90;;;;;;4998370;28;20038;-67
2023/10/16 06:48:50;;;;;;;0.00;0.00;;;9.70;99.90;;;;;;5000042;28;20050;-67
2023/10/16 06:51:16;;;;;;;0.10;0.10;;;9.70;99.90;;;;;;5000526;28;20069;-67
2023/10/16 06:53:45;;;;;;;0.03;0.03;;;9.70;99.90;;;;;;5003836;28;20065;-67
2023/10/16 06:56:14;;;;;;;0.10;0.10;;;9.80;99.90;;;;;;4999601;28;20050;-67
2023/10/16 06:58:40;;;;;;;0.00;0.00;;;9.70;99.90;;;;;;5009278;28;20049;-67
2023/10/16 07:01:06;;;;;;;0.10;0.10;;;9.70;99.90;;;;;;5009237;28;20099;-68
2023/10/16 07:03:33;;;;;;;0.10;0.10;;;9.80;99.90;;;;;;5002307;28;20038;-67
2023/10/16 07:05:59;;;;;;;0.20;0.20;;;9.80;99.90;;;;;;4999432;28;20055;-67
2023/10/16 07:08:25;;;;;;;0.10;0.10;;;9.70;99.90;;;;;;5006616;28;20490;-68
2023/10/16 07:10:52;;;;;;;0.10;0.10;;;9.80;99.90;;;;;;5007109;28;20529;-67
2023/10/16 07:13:28;;;;;;;0.08;0.08;;;9.70;99.90;;;;;;5001531;28;20046;-67
2023/10/16 07:16:11;;;;;;;0.05;0.05;;;9.80;99.90;;;;;;4995660;28;20045;-67
2023/10/16 07:18:42;;;;;;;0.10;0.10;;;9.70;99.90;;;;;;4994908;28;20056;-67
2023/10/16 07:21:09;;;;;;;0.10;0.10;;;9.80;99.90;;;;;;5006434;28;20050;-67
2023/10/16 07:23:36;;;;;;;0.10;0.10;;;9.80;99.90;;;;;;5010490;28;20050;-67
2023/10/16 07:26:06;;;;;;;0.05;0.05;;;9.80;99.90;;;;;;4998385;28;20049;-67
2023/10/16 07:28:32;;;;;;;0.10;0.10;;;9.80;99.90;;;;;;5001595;28;20166;-67
2023/10/16 07:30:59;;;;;;;0.00;0.00;;;9.90;99.90;;;;;;5004016;28;20173;-68
2023/10/16 07:33:25;;;;;;;0.10;0.10;;;9.90;99.90;;;;;;5006002;28;20562;-67
2023/10/16 07:35:54;;;;;;;0.00;0.00;;;9.90;99.90;;;;;;5004193;28;20513;-67
2023/10/16 07:38:22;;;;;;;0.03;0.03;;;10.00;99.90;;;;;;5002704;28;20493;-67
2023/10/16 07:41:00;;;;;;;0.00;0.00;;;10.00;99.90;;;;;;4995105;28;20050;-67
2023/10/16 07:43:27;;;;;;;0.00;0.00;;;10.00;99.90;;;;;;5007484;28;20064;-67
2023/10/16 07:46:16;;;;;;;0.10;0.10;;;10.10;99.90;;;;;;5000715;28;20099;-68
2023/10/16 07:48:51;;;;;;;0.10;0.10;;;10.10;99.90;;;;;;5003820;28;20045;-67
2023/10/16 07:51:25;;;;;;;0.10;0.10;;;10.10;99.90;;;;;;5001344;28;20129;-67
2023/10/16 07:53:51;;;;;;;0.10;0.10;;;10.10;99.90;;;;;;4998305;28;20057;-67
2023/10/16 07:58:55;;;;;;;0.08;0.08;;;10.10;99.90;;;;;;5007327;28;20667;-68
2023/10/16 08:01:37;;;;;;;0.10;0.10;;;10.10;99.90;;;;;;5001626;28;20062;-67
2023/10/16 08:04:06;;;;;;;0.10;0.10;;;10.20;99.90;;;;;;5001019;28;20045;-67
2023/10/16 08:06:39;;;;;;;0.00;0.00;;;10.20;99.90;;;;;;4996518;28;20038;-68
2023/10/16 08:14:41;;;;;;;0.10;0.10;;;10.30;99.90;;;;;;5005399;28;20042;-67
2023/10/16 08:17:17;;;;;;;0.08;0.08;;;10.30;99.90;;;;;;5000321;28;20092;-68
2023/10/16 08:19:49;;;;;;;0.17;0.17;;;10.40;99.90;;;;;;5004701;28;20395;-67
2023/10/16 08:22:15;;;;;;;0.10;0.10;;;10.40;99.90;;;;;;5006715;28;20518;-67
2023/10/16 08:24:59;;;;;;;0.22;0.22;;;10.40;99.90;;;;;;4995225;28;20164;-68
2023/10/16 08:30:18;;;;;;;0.10;0.10;;;10.50;99.90;;;;;;5003263;28;20050;-67
2023/10/16 08:35:17;;;;;;;0.10;0.10;;;10.50;99.90;;;;;;5005545;28;20050;-68
2023/10/16 08:37:43;;;;;;;0.10;0.10;;;10.60;99.90;;;;;;5006104;28;20046;-68
2023/10/16 08:40:19;;;;;;;0.20;0.20;;;10.70;99.90;;;;;;4997346;28;20046;-67
2023/10/16 08:43:00;;;;;;;0.20;0.20;;;10.70;99.90;;;;;;5010798;28;20129;-67
2023/10/16 08:45:29;;;;;;;0.00;0.00;;;10.80;99.90;;;;;;5011545;28;20077;-67
2023/10/16 08:47:57;;;;;;;0.10;0.10;;;10.80;99.90;;;;;;5004169;28;20038;-67
2023/10/16 08:50:40;;;;;;;0.00;0.00;;;10.80;99.90;;;;;;5002759;28;20046;-67
2023/10/16 08:53:06;;;;;;;0.00;0.00;;;10.90;99.90;;;;;;5002117;28;20071;-68
2023/10/16 08:55:34;;;;;;;0.10;0.10;;;10.80;99.90;;;;;;5011455;28;20549;-67
2023/10/16 08:58:04;;;;;;;0.10;0.10;;;10.90;99.90;;;;;;5005119;28;20045;-67
2023/10/16 09:00:31;;;;;;;0.10;0.10;;;10.90;99.90;;;;;;5003535;28;20133;-67
2023/10/16 09:03:00;;;;;;;0.00;0.00;;;10.90;99.90;;;;;;5004635;28;20053;-67
2023/10/16 09:05:26;;;;;;;0.10;0.10;;;11.00;99.90;;;;;;5000112;28;20528;-67
2023/10/16 09:07:51;;;;;;;0.10;0.10;;;11.00;99.90;;;;;;5008003;28;20072;-67
2023/10/16 09:10:21;;;;;;;0.10;0.10;;;11.10;99.90;;;;;;5011857;28;20046;-67
2023/10/16 09:12:54;;;;;;;0.05;0.05;;;11.00;99.90;;;;;;5010896;28;20046;-67
2023/10/16 09:15:26;;;;;;;0.00;0.00;;;11.10;99.90;;;;;;5007513;28;20048;-67
2023/10/16 09:17:52;;;;;;;0.08;0.08;;;11.20;99.90;;;;;;5002367;28;20177;-67
2023/10/16 09:20:19;;;;;;;3.72;1.30;;;11.10;99.90;;;;;;5006036;28;20053;-67
2023/10/16 09:22:48;;;;;;;0.00;0.00;;;11.20;99.90;;;;;;5014339;28;20057;-67
2023/10/16 09:25:22;;;;;;;0.00;0.00;;;11.20;99.90;;;;;;5004474;28;20049;-67
2023/10/16 09:27:49;;;;;;;0.10;0.10;;;11.20;99.90;;;;;;5001556;28;20037;-67
2023/10/16 09:30:15;;;;;;;0.03;0.03;;;11.20;99.90;;;;;;5008709;28;20046;-67
2023/10/16 09:32:41;;;;;;;0.10;0.10;;;11.20;99.90;;;;;;5008884;28;20379;-67
2023/10/16 09:35:13;;;;;;;0.10;0.10;;;11.30;99.90;;;;;;5013580;28;20477;-67
2023/10/16 09:37:39;;;;;;;0.10;0.10;;;11.30;99.90;;;;;;4996829;28;20141;-67
2023/10/16 09:40:08;;;;;;;0.00;0.00;;;11.40;99.90;;;;;;5003912;28;20065;-68
2023/10/16 09:42:35;;;;;;;0.10;0.10;;;11.80;99.90;;;;;;5004295;28;20084;-68
2023/10/16 09:45:09;;;;;;;0.10;0.10;;;11.90;99.90;;;;;;5004593;28;20057;-67
2023/10/16 09:47:38;;;;;;;0.10;0.10;;;11.90;99.90;;;;;;5001688;28;20046;-68
2023/10/16 09:50:28;;;;;;;0.10;0.10;;;11.90;99.90;;;;;;5000131;28;20445;-68
2023/10/16 09:52:50;;;;;;;0.10;0.10;;;11.90;99.90;;;;;;5003204;28;20057;-67
2023/10/16 09:55:19;;;;;;;0.35;0.22;;;11.80;99.90;;;;;;5004316;28;20065;-68
2023/10/16 09:57:54;;;;;;;0.10;0.10;;;11.70;99.90;;;;;;4993873;28;20043;-67
2023/10/16 10:00:32;;;;;;;0.10;0.10;;;11.70;99.90;;;;;;5004716;28;20064;-68
2023/10/16 10:03:05;;;;;;;0.75;0.75;;;11.70;99.90;;;;;;5003507;28;20105;-68
2023/10/16 10:05:39;;;;;;;0.10;0.10;;;11.60;99.90;;;;;;4997997;28;20057;-68
2023/10/16 10:08:15;;;;;;;0.10;0.10;;;11.60;99.90;;;;;;5005100;28;20093;-68
2023/10/16 10:13:43;;;;;;;0.10;0.10;;;11.70;99.90;;;;;;5000083;28;20058;-68
2023/10/16 10:16:13;;;;;;;0.00;0.00;;;11.70;99.90;;;;;;5000484;28;20046;-68
2023/10/16 10:18:45;;;;;;;0.10;0.10;;;11.70;99.90;;;;;;4995500;28;20049;-68
2023/10/16 10:21:18;;;;;;;0.00;0.00;;;11.70;99.90;;;;;;4997332;28;20046;-67
2023/10/16 10:23:47;;;;;;;0.10;0.10;;;11.80;99.90;;;;;;5007405;28;20121;-68
2023/10/16 10:26:18;;;;;;;0.10;0.10;;;11.90;99.90;;;;;;5001330;28;20080;-68
2023/10/16 10:28:45;;;;;;;0.00;0.00;;;11.90;99.90;;;;;;5009495;28;20132;-68
2023/10/16 10:31:12;;;;;;;0.10;0.10;;;12.00;99.90;;;;;;5000575;28;20145;-68
2023/10/16 10:33:42;;;;;;;0.10;0.10;;;12.20;99.90;;;;;;4999578;28;20034;-68
2023/10/16 10:36:33;;;;;;;0.00;0.00;;;12.20;99.90;;;;;;4997373;28;20050;-68
2023/10/16 10:39:21;;;;;;;0.10;0.10;;;12.40;99.90;;;;;;5005805;28;20078;-68
2023/10/16 10:41:55;;;;;;;0.00;0.00;;;12.40;99.90;;;;;;5013482;28;20105;-68
2023/10/16 10:44:30;;;;;;;;;;;12.50;99.90;;;;;;5022732;28;20050;-68
2023/10/16 10:47:00;;;;;;;0.00;0.00;;;12.50;99.90;;;;;;5002653;28;19933;-67
2023/10/16 10:49:33;;;;;;;0.20;0.20;;;12.60;99.90;;;;;;5003626;28;20042;-68
2023/10/16 10:52:06;;;;;;;0.00;0.00;;;12.70;99.90;;;;;;4994668;28;20049;-68
2023/10/16 10:54:33;;;;;;;;;;;12.70;99.90;;;;;;5000480;28;20483;-67
2023/10/16 10:57:04;;;;;;;0.10;0.10;;;12.80;99.90;;;;;;4997864;28;19922;-68
2023/10/16 10:59:39;;;;;;;0.00;0.00;;;12.90;99.90;;;;;;5005100;28;20056;-68
2023/10/16 11:02:20;;;;;;;0.10;0.10;;;13.00;99.90;;;;;;4999295;28;20129;-68
2023/10/16 11:04:58;;;;;;;0.13;0.13;;;13.00;99.90;;;;;;5028410;28;20085;-68
2023/10/16 11:07:45;;;;;;;0.10;0.10;;;13.10;99.90;;;;;;5002088;28;20445;-68
2023/10/16 11:10:15;;;;;;;0.00;0.00;;;13.30;99.90;;;;;;4998822;28;20137;-68
2023/10/16 11:12:40;;;;;;;0.57;0.57;;;13.40;99.90;;;;;;4997217;28;20080;-68
2023/10/16 11:15:16;;;;;;;0.10;0.10;;;13.50;99.90;;;;;;5003473;28;20429;-68
2023/10/16 11:17:44;;;;;;;0.90;0.90;;;13.50;99.90;;;;;;5005013;28;20104;-68
2023/10/16 11:22:53;;;;;;;0.00;0.00;;;13.40;99.90;;;;;;5001763;28;20183;-68
2023/10/16 11:25:20;;;;;;;0.10;0.10;;;13.50;99.90;;;;;;5002861;28;20057;-68
2023/10/16 11:27:47;;;;;;;1.38;0.40;;;13.80;99.90;;;;;;4997051;28;20683;-68
2023/10/16 11:30:14;;;;;;;0.00;0.00;;;13.80;99.90;;;;;;5006087;28;20054;-68
2023/10/16 11:32:48;;;;;;;0.10;0.10;;;14.00;99.90;;;;;;5000005;28;20061;-67
2023/10/16 11:35:17;;;;;;;0.10;0.10;;;14.00;99.90;;;;;;5002837;28;20088;-67
2023/10/16 11:38:04;;;;;;;0.10;0.10;;;14.20;99.90;;;;;;5002666;28;20046;-67
2023/10/16 11:40:39;;;;;;;0.10;0.10;;;14.40;99.90;;;;;;5003491;28;20072;-67
2023/10/16 11:43:07;;;;;;;0.00;0.00;;;14.40;99.90;;;;;;5005710;28;20046;-67
2023/10/16 11:45:33;;;;;;;0.10;0.10;;;14.40;99.90;;;;;;5006854;28;20087;-67
2023/10/16 11:50:58;;;;;;;0.00;0.00;;;14.30;99.90;;;;;;5000576;28;20393;-67
2023/10/16 11:53:23;;;;;;;0.10;0.10;;;14.40;99.90;;;;;;5005731;28;20049;-67
2023/10/16 11:55:50;;;;;;;0.10;0.10;;;14.60;99.90;;;;;;5005157;28;20398;-67
2023/10/16 11:58:16;;;;;;;0.03;0.03;;;14.90;99.90;;;;;;5008048;28;20038;-67
2023/10/16 12:00:54;;;;;;;0.00;0.00;;;15.00;99.90;;;;;;4998781;28;20141;-67
2023/10/16 12:03:23;;;;;;;0.00;0.00;;;15.00;99.90;;;;;;5002369;28;20387;-67
2023/10/16 12:05:52;;;;;;;5.40;0.35;;;14.90;99.90;;;;;;5004240;28;20054;-67
2023/10/16 12:08:21;;;;;;;0.00;0.00;;;15.00;99.90;;;;;;4996693;28;20034;-67
2023/10/16 12:10:48;;;;;;;0.05;0.05;;;15.00;99.90;;;;;;5000970;28;20045;-67
2023/10/16 12:13:14;;;;;;;0.08;0.08;;;15.10;99.90;;;;;;4998081;28;20049;-67
2023/10/16 12:15:46;;;;;;;0.00;0.00;;;15.10;99.90;;;;;;4997183;28;20056;-67
2023/10/16 12:18:13;;;;;;;0.10;0.10;;;15.10;99.90;;;;;;4996682;28;20050;-67
2023/10/16 12:20:39;;;;;;;0.00;0.00;;;15.20;99.90;;;;;;5000129;28;20315;-67
2023/10/16 12:23:05;;;;;;;0.30;0.30;;;15.00;99.90;;;;;;4996547;28;20081;-67
2023/10/16 12:25:32;;;;;;;0.00;0.00;;;14.90;99.90;;;;;;4999862;28;20505;-67
2023/10/16 12:27:58;;;;;;;0.00;0.00;;;15.10;99.90;;;;;;5002060;28;20057;-67
2023/10/16 12:30:27;;;;;;;0.05;0.05;;;15.00;99.90;;;;;;4997569;28;20042;-67
2023/10/16 12:32:54;;;;;;;0.00;0.00;;;15.00;99.90;;;;;;5003452;28;20121;-67
2023/10/16 12:35:22;;;;;;;0.10;0.10;;;14.90;99.90;;;;;;5005670;28;20805;-67
2023/10/16 12:37:49;;;;;;;0.32;0.32;;;14.80;99.90;;;;;;4999332;28;20471;-67
2023/10/16 12:40:24;;;;;;;0.30;0.30;;;14.80;99.90;;;;;;4998439;28;20042;-67
2023/10/16 12:42:58;;;;;;;0.10;0.10;;;14.70;99.90;;;;;;4990436;28;20041;-67
2023/10/16 12:45:25;;;;;;;0.00;0.00;;;14.60;99.90;;;;;;4995369;28;20045;-67
2023/10/16 12:47:51;;;;;;;0.00;0.00;;;14.70;99.90;;;;;;4998793;28;20104;-67
2023/10/16 12:50:23;;;;;;;0.10;0.10;;;14.70;99.90;;;;;;5001401;28;20042;-66
2023/10/16 12:52:54;;;;;;;0.00;0.00;;;14.80;99.90;;;;;;4997381;28;20055;-67
2023/10/16 12:55:22;;;;;;;0.00;0.00;;;14.80;99.90;;;;;;5013047;28;20050;-67
2023/10/16 12:57:48;;;;;;;0.20;0.20;;;14.90;99.90;;;;;;5003808;28;20128;-67
2023/10/16 13:00:18;;;;;;;0.10;0.10;;;14.90;99.90;;;;;;4999992;28;20044;-67
2023/10/16 13:02:46;;;;;;;0.10;0.10;;;15.00;99.90;;;;;;4997455;28;20042;-68
2023/10/16 13:05:15;;;;;;;0.00;0.00;;;15.30;99.90;;;;;;4996883;28;20042;-68
2023/10/16 13:07:43;;;;;;;0.10;0.10;;;15.30;99.90;;;;;;5001031;28;20057;-68
2023/10/16 13:10:19;;;;;;;0.10;0.10;;;15.40;99.90;;;;;;5004137;28;20512;-67
2023/10/16 13:12:46;;;;;;;0.00;0.00;;;15.10;99.90;;;;;;4999928;28;20562;-68
2023/10/16 13:15:24;;;;;;;0.00;0.00;;;15.00;99.90;;;;;;5006624;28;20121;-68
2023/10/16 13:17:50;;;;;;;0.28;0.28;;;14.90;99.90;;;;;;4997259;28;20050;-67
2023/10/16 13:20:19;;;;;;;0.00;0.00;;;14.90;99.90;;;;;;4999955;28;20081;-67
2023/10/16 13:22:55;;;;;;;0.10;0.10;;;15.00;99.90;;;;;;4997855;28;20045;-67
2023/10/16 13:25:22;;;;;;;0.00;0.00;;;14.90;99.90;;;;;;5003836;28;20049;-67
2023/10/16 13:27:49;;;;;;;0.00;0.00;;;14.70;99.90;;;;;;5009209;28;20109;-67
2023/10/16 13:30:18;;;;;;;0.40;0.40;;;14.70;99.90;;;;;;5002516;28;20506;-67
2023/10/16 13:32:47;;;;;;;0.00;0.00;;;14.60;99.90;;;;;;5007450;28;20046;-67
2023/10/16 13:35:15;;;;;;;0.00;0.00;;;14.60;99.90;;;;;;5003103;28;20420;-67
2023/10/16 13:37:42;;;;;;;0.00;0.00;;;14.60;99.90;;;;;;5004945;28;20049;-67
2023/10/16 13:40:19;;;;;;;0.00;0.00;;;14.60;99.90;;;;;;5008458;28;20046;-67
2023/10/16 13:42:47;;;;;;;0.00;0.00;;;14.50;99.90;;;;;;5003178;28;20498;-67
2023/10/16 13:45:13;;;;;;;0.00;0.00;;;14.30;99.90;;;;;;4998777;28;20046;-67
2023/10/16 13:47:42;;;;;;;0.00;0.00;;;14.20;99.90;;;;;;4998298;28;20046;-67
2023/10/16 13:50:10;;;;;;;0.00;0.00;;;14.30;99.90;;;;;;5003298;28;20041;-67
2023/10/16 13:52:36;;;;;;;0.05;0.05;;;14.10;99.90;;;;;;4998815;28;20042;-67
2023/10/16 13:55:12;;;;;;;1.05;1.00;;;14.10;99.90;;;;;;5000404;28;20553;-67
2023/10/16 13:57:42;;;;;;;0.10;0.10;;;14.00;99.90;;;;;;5005347;28;20568;-67
2023/10/16 14:03:17;;;;;;;0.10;0.10;;;14.00;99.90;;;;;;5008463;28;20482;-67
2023/10/16 14:05:48;;;;;;;0.10;0.10;;;14.00;99.90;;;;;;5010426;28;20081;-67
2023/10/16 14:08:15;;;;;;;0.00;0.00;;;14.00;99.90;;;;;;4997222;28;20472;-67
2023/10/16 14:10:46;;;;;;;0.05;0.05;;;13.90;99.90;;;;;;5004433;28;20045;-67
2023/10/16 14:13:21;;;;;;;0.00;0.00;;;13.90;99.90;;;;;;5006307;28;20112;-67
2023/10/16 14:15:48;;;;;;;0.00;0.00;;;13.90;99.90;;;;;;5001755;28;20104;-67
2023/10/16 14:18:15;;;;;;;0.00;0.00;;;13.80;99.90;;;;;;5003556;28;20491;-67
2023/10/16 14:20:45;;;;;;;0.10;0.10;;;13.80;99.90;;;;;;4998092;28;20053;-67
2023/10/16 14:23:15;;;;;;;0.00;0.00;;;13.70;99.90;;;;;;5004421;28;20446;-67
2023/10/16 14:25:48;;;;;;;0.05;0.05;;;13.70;99.90;;;;;;5003309;28;20042;-67
2023/10/16 14:31:01;;;;;;;0.00;0.00;;;13.80;99.90;;;;;;5007372;28;20046;-68
2023/10/16 14:33:29;;;;;;;0.00;0.00;;;13.80;99.90;;;;;;5008384;28;20486;-66
2023/10/16 14:35:58;;;;;;;0.00;0.00;;;13.70;99.90;;;;;;5000390;28;20057;-66
2023/10/16 14:38:25;;;;;;;0.00;0.00;;;13.60;99.90;;;;;;4998826;28;20046;-67
2023/10/16 14:40:51;;;;;;;0.00;0.00;;;13.50;99.90;;;;;;5002345;28;20414;-66
2023/10/16 14:43:17;;;;;;;0.00;0.00;;;13.40;99.90;;;;;;5003481;28;20038;-66
2023/10/16 14:45:47;;;;;;;0.00;0.00;;;13.40;99.90;;;;;;5000620;28;20520;-67
2023/10/16 14:48:15;;;;;;;0.00;0.00;;;13.40;99.90;;;;;;4999179;28;20053;-67
2023/10/16 14:50:44;;;;;;;0.08;0.08;;;13.40;99.90;;;;;;5000771;28;20461;-66
2023/10/16 14:53:11;;;;;;;0.00;0.00;;;13.20;99.90;;;;;;5003082;28;20049;-66
2023/10/16 14:55:36;;;;;;;0.00;0.00;;;13.20;99.90;;;;;;5008394;28;20054;-67
2023/10/16 14:58:03;;;;;;;0.00;0.00;;;13.30;99.90;;;;;;5006014;28;20040;-66
2023/10/16 15:00:32;;;;;;;0.05;0.05;;;13.20;99.90;;;;;;5002716;28;20390;-66
2023/10/16 15:03:03;;;;;;;0.10;0.10;;;13.10;99.90;;;;;;5002758;28;20080;-66
2023/10/16 15:05:28;;;;;;;0.30;0.30;;;13.10;99.90;;;;;;4998784;28;20060;-67
2023/10/16 15:07:58;;;;;;;0.10;0.10;;;13.20;99.90;;;;;;5006026;28;20119;-66
2023/10/16 15:10:25;;;;;;;0.22;0.22;;;13.00;99.90;;;;;;4997279;28;20056;-67
2023/10/16 15:12:50;;;;;;;0.28;0.28;;;13.00;99.90;;;;;;5001344;28;20112;-66
2023/10/16 15:15:16;;;;;;;0.00;0.00;;;13.00;99.90;;;;;;4996610;28;20046;-66